Impacts TAF Board
For situational awareness. Not to be used for flight planning purposes.
IDs:

KBFI - Seattle/Boeing Fld, WA, US

Issued at 1144 UTC 15 Jul 2020
Updated at 1309 UTC 15 Jul 2020
Potential Impact None Slight Moderate High
Time1253Z 15/14Z 15/15Z 15/16Z 15/17Z 15/18Z 15/19Z 15/20Z 15/21Z 15/22Z 15/23Z 16/00Z 16/01Z 16/02Z>>
Type OBS PRVL PRVL PRVL PRVL PRVL PRVL PRVL PRVL PRVL PRVL PRVL PRVL PRVL
VIS 10 >6 >6 >6 >6 >6 >6 >6 >6 >6 >6 >6 >6 >6
CIG -- -- -- -- -- -- -- -- -- -- -- -- -- --
Cover FEW SKC SKC SKC FEW FEW SCT SCT SCT SCT SCT SCT SCT SCT
FltCat VFR VFR VFR VFR VFR VFR VFR VFR VFR VFR VFR VFR VFR VFR
WX -- -- -- -- -- -- -- -- -- -- -- -- -- --
WDir 310 VRB VRB VRB VRB VRB 310 310 310 310 310 310 310 310
WSpd 4 0 0 0 4 4 6 6 6 6 6 6 6 6
WGst -- -- -- -- -- -- -- -- -- -- -- -- -- --
Raw TAF
KBFI 151144Z 1512/1612 00000KT P6SM SKC
  FM151700 VRB04KT P6SM FEW120
  FM151900 31006KT P6SM SCT100
  FM160300 32003KT P6SM FEW120
  FM160600 00000KT P6SM SCT080


Raw METAR
KBFI 151253Z 31004KT 10SM FEW250 16/08 A3013 RMK AO2 SLP203 T01560083
KBFI 151153Z 35003KT 10SM SCT250 17/07 A3012 RMK AO2 SLP200 T01670072 10206 20167 50000
KBFI 151053Z 00000KT 10SM CLR 17/07 A3013 RMK AO2 SLP201 T01670067

METAR Board
Radar Display
Forecast Discussion
For situational awareness. Not to be used for flight planning purposes.